sensor_id;sensor_type;location;lat;lon;timestamp;P1;durP1;ratioP1;P2;durP2;ratioP2
34317;SDS011;20582;52.196;20.952;2022-09-09T00:04:36;17.65;;;7.38;;
34317;SDS011;20582;52.196;20.952;2022-09-09T00:09:38;14.48;;;7.22;;
34317;SDS011;20582;52.196;20.952;2022-09-09T00:12:14;14.02;;;7.07;;
34317;SDS011;20582;52.196;20.952;2022-09-09T00:14:54;16.63;;;8.35;;
34317;SDS011;20582;52.196;20.952;2022-09-09T00:22:54;17.42;;;8.30;;
34317;SDS011;20582;52.196;20.952;2022-09-09T00:28:17;15.55;;;8.98;;
34317;SDS011;20582;52.196;20.952;2022-09-09T00:30:44;19.17;;;9.87;;
34317;SDS011;20582;52.196;20.952;2022-09-09T00:33:13;15.25;;;8.30;;
34317;SDS011;20582;52.196;20.952;2022-09-09T00:35:50;18.45;;;8.80;;
34317;SDS011;20582;52.196;20.952;2022-09-09T00:38:18;20.58;;;9.50;;
34317;SDS011;20582;52.196;20.952;2022-09-09T00:40:47;18.77;;;9.25;;
34317;SDS011;20582;52.196;20.952;2022-09-09T00:51:09;18.33;;;10.38;;
34317;SDS011;20582;52.196;20.952;2022-09-09T00:56:26;22.50;;;10.60;;
34317;SDS011;20582;52.196;20.952;2022-09-09T00:59:19;19.33;;;9.90;;
34317;SDS011;20582;52.196;20.952;2022-09-09T01:01:39;22.85;;;10.68;;
34317;SDS011;20582;52.196;20.952;2022-09-09T01:04:08;20.50;;;10.63;;
34317;SDS011;20582;52.196;20.952;2022-09-09T01:06:36;18.85;;;10.52;;
34317;SDS011;20582;52.196;20.952;2022-09-09T01:19:40;24.20;;;12.10;;
34317;SDS011;20582;52.196;20.952;2022-09-09T01:27:44;20.05;;;11.55;;
34317;SDS011;20582;52.196;20.952;2022-09-09T01:30:13;20.75;;;12.70;;
34317;SDS011;20582;52.196;20.952;2022-09-09T01:32:50;22.38;;;12.55;;
34317;SDS011;20582;52.196;20.952;2022-09-09T01:38:00;21.55;;;12.20;;
34317;SDS011;20582;52.196;20.952;2022-09-09T01:40:27;19.77;;;12.15;;
34317;SDS011;20582;52.196;20.952;2022-09-09T01:42:53;21.00;;;12.10;;
34317;SDS011;20582;52.196;20.952;2022-09-09T01:45:19;21.00;;;12.63;;
34317;SDS011;20582;52.196;20.952;2022-09-09T01:47:47;21.38;;;12.30;;
34317;SDS011;20582;52.196;20.952;2022-09-09T01:50:14;22.88;;;12.40;;
34317;SDS011;20582;52.196;20.952;2022-09-09T01:52:40;21.33;;;11.88;;
34317;SDS011;20582;52.196;20.952;2022-09-09T01:55:07;21.55;;;12.13;;
34317;SDS011;20582;52.196;20.952;2022-09-09T02:00:07;23.23;;;12.45;;
34317;SDS011;20582;52.196;20.952;2022-09-09T02:08:03;22.83;;;12.48;;
34317;SDS011;20582;52.196;20.952;2022-09-09T02:10:33;20.15;;;13.23;;
34317;SDS011;20582;52.196;20.952;2022-09-09T02:13:04;21.92;;;12.27;;
34317;SDS011;20582;52.196;20.952;2022-09-09T02:15:33;21.52;;;12.80;;
34317;SDS011;20582;52.196;20.952;2022-09-09T02:18:00;23.98;;;12.70;;
34317;SDS011;20582;52.196;20.952;2022-09-09T02:20:28;24.40;;;12.52;;
34317;SDS011;20582;52.196;20.952;2022-09-09T02:22:57;23.60;;;12.20;;
34317;SDS011;20582;52.196;20.952;2022-09-09T02:25:25;23.80;;;13.40;;
34317;SDS011;20582;52.196;20.952;2022-09-09T02:27:52;23.33;;;12.57;;
34317;SDS011;20582;52.196;20.952;2022-09-09T02:30:18;24.83;;;13.60;;
34317;SDS011;20582;52.196;20.952;2022-09-09T02:32:45;25.52;;;13.80;;
34317;SDS011;20582;52.196;20.952;2022-09-09T02:35:12;22.20;;;13.13;;
34317;SDS011;20582;52.196;20.952;2022-09-09T02:37:40;23.08;;;13.00;;
34317;SDS011;20582;52.196;20.952;2022-09-09T02:40:08;25.00;;;13.68;;
34317;SDS011;20582;52.196;20.952;2022-09-09T02:42:38;20.30;;;13.15;;
34317;SDS011;20582;52.196;20.952;2022-09-09T02:45:05;24.45;;;14.30;;
34317;SDS011;20582;52.196;20.952;2022-09-09T02:47:35;23.13;;;13.80;;
34317;SDS011;20582;52.196;20.952;2022-09-09T02:57:57;24.35;;;13.75;;
34317;SDS011;20582;52.196;20.952;2022-09-09T03:00:24;21.10;;;13.20;;
34317;SDS011;20582;52.196;20.952;2022-09-09T03:02:50;20.77;;;12.85;;
34317;SDS011;20582;52.196;20.952;2022-09-09T03:05:16;19.67;;;12.38;;
34317;SDS011;20582;52.196;20.952;2022-09-09T03:07:42;23.17;;;13.40;;
34317;SDS011;20582;52.196;20.952;2022-09-09T03:10:08;20.95;;;12.25;;
34317;SDS011;20582;52.196;20.952;2022-09-09T03:12:35;19.58;;;12.27;;
34317;SDS011;20582;52.196;20.952;2022-09-09T03:15:01;21.30;;;13.35;;
34317;SDS011;20582;52.196;20.952;2022-09-09T03:17:27;20.85;;;12.68;;
34317;SDS011;20582;52.196;20.952;2022-09-09T03:19:53;21.48;;;13.23;;
34317;SDS011;20582;52.196;20.952;2022-09-09T03:22:20;20.73;;;12.85;;
34317;SDS011;20582;52.196;20.952;2022-09-09T03:24:46;19.13;;;12.02;;
34317;SDS011;20582;52.196;20.952;2022-09-09T03:27:12;19.42;;;12.40;;
34317;SDS011;20582;52.196;20.952;2022-09-09T03:29:39;19.67;;;12.20;;
34317;SDS011;20582;52.196;20.952;2022-09-09T03:32:05;19.83;;;11.68;;
34317;SDS011;20582;52.196;20.952;2022-09-09T03:34:31;17.90;;;12.43;;
34317;SDS011;20582;52.196;20.952;2022-09-09T03:36:57;22.70;;;13.30;;
34317;SDS011;20582;52.196;20.952;2022-09-09T03:39:23;18.10;;;12.60;;
34317;SDS011;20582;52.196;20.952;2022-09-09T03:41:49;18.65;;;12.32;;
34317;SDS011;20582;52.196;20.952;2022-09-09T03:44:15;21.02;;;12.27;;
34317;SDS011;20582;52.196;20.952;2022-09-09T03:46:41;18.17;;;11.10;;
34317;SDS011;20582;52.196;20.952;2022-09-09T03:49:07;20.20;;;12.55;;
34317;SDS011;20582;52.196;20.952;2022-09-09T03:51:35;19.90;;;11.77;;
34317;SDS011;20582;52.196;20.952;2022-09-09T03:54:01;18.10;;;11.57;;
34317;SDS011;20582;52.196;20.952;2022-09-09T03:56:30;16.75;;;11.52;;
34317;SDS011;20582;52.196;20.952;2022-09-09T03:58:56;20.55;;;12.85;;
34317;SDS011;20582;52.196;20.952;2022-09-09T04:01:22;20.15;;;12.05;;
34317;SDS011;20582;52.196;20.952;2022-09-09T04:03:48;17.25;;;12.05;;
34317;SDS011;20582;52.196;20.952;2022-09-09T04:06:15;17.65;;;11.80;;
34317;SDS011;20582;52.196;20.952;2022-09-09T04:08:42;18.65;;;11.80;;
34317;SDS011;20582;52.196;20.952;2022-09-09T04:11:10;18.35;;;12.45;;
34317;SDS011;20582;52.196;20.952;2022-09-09T04:13:37;17.90;;;12.45;;
34317;SDS011;20582;52.196;20.952;2022-09-09T04:16:04;19.10;;;12.10;;
34317;SDS011;20582;52.196;20.952;2022-09-09T04:18:30;19.63;;;12.48;;
34317;SDS011;20582;52.196;20.952;2022-09-09T04:20:56;19.75;;;12.80;;
34317;SDS011;20582;52.196;20.952;2022-09-09T04:23:23;19.33;;;13.07;;
34317;SDS011;20582;52.196;20.952;2022-09-09T04:25:52;18.75;;;12.00;;
34317;SDS011;20582;52.196;20.952;2022-09-09T04:28:19;17.20;;;11.68;;
34317;SDS011;20582;52.196;20.952;2022-09-09T04:30:46;18.55;;;12.55;;
34317;SDS011;20582;52.196;20.952;2022-09-09T04:33:12;18.27;;;11.85;;
34317;SDS011;20582;52.196;20.952;2022-09-09T04:35:39;19.35;;;12.98;;
34317;SDS011;20582;52.196;20.952;2022-09-09T04:38:05;18.13;;;11.90;;
34317;SDS011;20582;52.196;20.952;2022-09-09T04:40:34;19.63;;;12.63;;
34317;SDS011;20582;52.196;20.952;2022-09-09T04:43:00;17.17;;;11.43;;
34317;SDS011;20582;52.196;20.952;2022-09-09T04:45:27;18.02;;;12.18;;
34317;SDS011;20582;52.196;20.952;2022-09-09T04:47:54;16.60;;;11.52;;
34317;SDS011;20582;52.196;20.952;2022-09-09T04:50:20;17.60;;;11.98;;
34317;SDS011;20582;52.196;20.952;2022-09-09T04:52:46;17.02;;;11.77;;
34317;SDS011;20582;52.196;20.952;2022-09-09T04:55:12;16.17;;;10.90;;
34317;SDS011;20582;52.196;20.952;2022-09-09T04:57:38;16.45;;;10.75;;
34317;SDS011;20582;52.196;20.952;2022-09-09T05:00:04;15.35;;;11.10;;
34317;SDS011;20582;52.196;20.952;2022-09-09T05:02:31;18.40;;;12.02;;
34317;SDS011;20582;52.196;20.952;2022-09-09T05:04:57;17.50;;;11.55;;
34317;SDS011;20582;52.196;20.952;2022-09-09T05:07:23;17.25;;;11.55;;
34317;SDS011;20582;52.196;20.952;2022-09-09T05:09:51;17.77;;;11.05;;
34317;SDS011;20582;52.196;20.952;2022-09-09T05:12:19;15.80;;;10.38;;
34317;SDS011;20582;52.196;20.952;2022-09-09T05:14:45;15.32;;;10.07;;
34317;SDS011;20582;52.196;20.952;2022-09-09T05:17:11;16.85;;;10.40;;
34317;SDS011;20582;52.196;20.952;2022-09-09T05:19:38;17.42;;;10.40;;
34317;SDS011;20582;52.196;20.952;2022-09-09T05:22:04;18.50;;;11.10;;
34317;SDS011;20582;52.196;20.952;2022-09-09T05:24:30;16.25;;;9.90;;
34317;SDS011;20582;52.196;20.952;2022-09-09T05:26:58;16.70;;;10.52;;
34317;SDS011;20582;52.196;20.952;2022-09-09T05:29:26;19.77;;;10.10;;
34317;SDS011;20582;52.196;20.952;2022-09-09T05:31:52;16.95;;;10.25;;
34317;SDS011;20582;52.196;20.952;2022-09-09T05:34:18;15.35;;;10.10;;
34317;SDS011;20582;52.196;20.952;2022-09-09T05:36:45;17.55;;;12.35;;
34317;SDS011;20582;52.196;20.952;2022-09-09T05:39:12;16.40;;;10.48;;
34317;SDS011;20582;52.196;20.952;2022-09-09T05:41:38;15.70;;;10.70;;
34317;SDS011;20582;52.196;20.952;2022-09-09T05:44:04;15.25;;;10.52;;
34317;SDS011;20582;52.196;20.952;2022-09-09T05:46:31;14.45;;;10.15;;
34317;SDS011;20582;52.196;20.952;2022-09-09T05:48:57;13.88;;;9.98;;
34317;SDS011;20582;52.196;20.952;2022-09-09T05:51:24;16.67;;;10.32;;
34317;SDS011;20582;52.196;20.952;2022-09-09T05:53:51;19.85;;;11.00;;
34317;SDS011;20582;52.196;20.952;2022-09-09T05:56:21;14.20;;;10.15;;
34317;SDS011;20582;52.196;20.952;2022-09-09T06:01:22;14.73;;;10.18;;
34317;SDS011;20582;52.196;20.952;2022-09-09T06:03:49;17.45;;;11.50;;
34317;SDS011;20582;52.196;20.952;2022-09-09T06:06:16;16.70;;;11.50;;
34317;SDS011;20582;52.196;20.952;2022-09-09T06:08:43;16.88;;;11.07;;
34317;SDS011;20582;52.196;20.952;2022-09-09T06:11:11;16.58;;;12.02;;
34317;SDS011;20582;52.196;20.952;2022-09-09T06:13:38;18.17;;;11.48;;
34317;SDS011;20582;52.196;20.952;2022-09-09T06:16:16;17.27;;;11.77;;
34317;SDS011;20582;52.196;20.952;2022-09-09T06:18:43;20.80;;;12.68;;
34317;SDS011;20582;52.196;20.952;2022-09-09T06:21:11;20.77;;;11.88;;
34317;SDS011;20582;52.196;20.952;2022-09-09T06:23:39;18.20;;;11.27;;
34317;SDS011;20582;52.196;20.952;2022-09-09T06:26:15;15.43;;;11.43;;
34317;SDS011;20582;52.196;20.952;2022-09-09T06:28:45;21.67;;;13.13;;
34317;SDS011;20582;52.196;20.952;2022-09-09T06:31:18;29.90;;;12.98;;
34317;SDS011;20582;52.196;20.952;2022-09-09T06:33:50;19.98;;;12.93;;
34317;SDS011;20582;52.196;20.952;2022-09-09T06:36:17;18.77;;;13.00;;
34317;SDS011;20582;52.196;20.952;2022-09-09T06:38:48;17.70;;;12.52;;
34317;SDS011;20582;52.196;20.952;2022-09-09T06:41:19;19.13;;;13.05;;
34317;SDS011;20582;52.196;20.952;2022-09-09T06:43:48;19.00;;;13.07;;
34317;SDS011;20582;52.196;20.952;2022-09-09T06:46:29;19.63;;;13.20;;
34317;SDS011;20582;52.196;20.952;2022-09-09T06:48:57;19.90;;;13.20;;
34317;SDS011;20582;52.196;20.952;2022-09-09T06:51:26;30.58;;;13.73;;
34317;SDS011;20582;52.196;20.952;2022-09-09T06:53:54;23.08;;;13.07;;
34317;SDS011;20582;52.196;20.952;2022-09-09T06:58:52;22.38;;;13.70;;
34317;SDS011;20582;52.196;20.952;2022-09-09T07:01:20;19.33;;;13.55;;
34317;SDS011;20582;52.196;20.952;2022-09-09T07:03:50;19.65;;;13.45;;
34317;SDS011;20582;52.196;20.952;2022-09-09T07:06:21;23.42;;;14.05;;
34317;SDS011;20582;52.196;20.952;2022-09-09T07:08:49;18.23;;;13.18;;
34317;SDS011;20582;52.196;20.952;2022-09-09T07:11:15;20.95;;;14.18;;
34317;SDS011;20582;52.196;20.952;2022-09-09T07:13:41;26.58;;;15.45;;
34317;SDS011;20582;52.196;20.952;2022-09-09T07:16:12;22.65;;;14.48;;
34317;SDS011;20582;52.196;20.952;2022-09-09T07:18:39;20.65;;;14.77;;
34317;SDS011;20582;52.196;20.952;2022-09-09T07:21:05;21.88;;;14.05;;
34317;SDS011;20582;52.196;20.952;2022-09-09T07:23:31;26.60;;;14.70;;
34317;SDS011;20582;52.196;20.952;2022-09-09T07:25:58;24.10;;;13.85;;
34317;SDS011;20582;52.196;20.952;2022-09-09T07:28:25;30.90;;;15.57;;
34317;SDS011;20582;52.196;20.952;2022-09-09T07:30:55;30.33;;;15.05;;
34317;SDS011;20582;52.196;20.952;2022-09-09T07:33:22;27.08;;;15.70;;
34317;SDS011;20582;52.196;20.952;2022-09-09T07:35:48;24.83;;;15.27;;
34317;SDS011;20582;52.196;20.952;2022-09-09T07:38:15;35.40;;;17.00;;
34317;SDS011;20582;52.196;20.952;2022-09-09T07:40:41;27.52;;;15.88;;
34317;SDS011;20582;52.196;20.952;2022-09-09T07:43:07;25.27;;;15.68;;
34317;SDS011;20582;52.196;20.952;2022-09-09T07:45:33;20.85;;;15.52;;
34317;SDS011;20582;52.196;20.952;2022-09-09T07:48:01;34.78;;;16.73;;
34317;SDS011;20582;52.196;20.952;2022-09-09T07:50:27;29.42;;;16.65;;
34317;SDS011;20582;52.196;20.952;2022-09-09T07:52:53;26.20;;;16.38;;
34317;SDS011;20582;52.196;20.952;2022-09-09T07:55:22;24.38;;;16.25;;
34317;SDS011;20582;52.196;20.952;2022-09-09T08:00:16;24.70;;;16.05;;
34317;SDS011;20582;52.196;20.952;2022-09-09T08:02:43;21.08;;;15.30;;
34317;SDS011;20582;52.196;20.952;2022-09-09T08:05:11;21.73;;;15.45;;
34317;SDS011;20582;52.196;20.952;2022-09-09T08:07:37;25.00;;;16.17;;
34317;SDS011;20582;52.196;20.952;2022-09-09T08:10:04;26.40;;;16.30;;
34317;SDS011;20582;52.196;20.952;2022-09-09T08:12:31;28.05;;;17.02;;
34317;SDS011;20582;52.196;20.952;2022-09-09T08:14:57;24.52;;;17.02;;
34317;SDS011;20582;52.196;20.952;2022-09-09T08:17:23;25.65;;;16.45;;
34317;SDS011;20582;52.196;20.952;2022-09-09T08:19:49;23.15;;;17.17;;
34317;SDS011;20582;52.196;20.952;2022-09-09T08:22:15;30.70;;;18.67;;
34317;SDS011;20582;52.196;20.952;2022-09-09T08:24:41;28.92;;;18.98;;
34317;SDS011;20582;52.196;20.952;2022-09-09T08:27:07;31.67;;;19.05;;
34317;SDS011;20582;52.196;20.952;2022-09-09T08:29:34;27.83;;;19.42;;
34317;SDS011;20582;52.196;20.952;2022-09-09T08:32:02;29.77;;;19.00;;
34317;SDS011;20582;52.196;20.952;2022-09-09T08:34:29;28.88;;;19.88;;
34317;SDS011;20582;52.196;20.952;2022-09-09T08:36:56;33.17;;;20.25;;
34317;SDS011;20582;52.196;20.952;2022-09-09T08:39:22;31.65;;;20.33;;
34317;SDS011;20582;52.196;20.952;2022-09-09T08:50:11;44.13;;;22.25;;
34317;SDS011;20582;52.196;20.952;2022-09-09T08:57:47;45.42;;;23.13;;
34317;SDS011;20582;52.196;20.952;2022-09-09T09:00:14;38.33;;;22.98;;
34317;SDS011;20582;52.196;20.952;2022-09-09T09:05:19;61.97;;;26.00;;
34317;SDS011;20582;52.196;20.952;2022-09-09T09:12:57;68.07;;;25.90;;
34317;SDS011;20582;52.196;20.952;2022-09-09T09:15:26;49.20;;;23.98;;
34317;SDS011;20582;52.196;20.952;2022-09-09T09:17:55;48.67;;;24.20;;
34317;SDS011;20582;52.196;20.952;2022-09-09T09:20:38;50.40;;;25.00;;
34317;SDS011;20582;52.196;20.952;2022-09-09T09:23:09;44.60;;;23.73;;
34317;SDS011;20582;52.196;20.952;2022-09-09T09:25:45;38.70;;;22.25;;
34317;SDS011;20582;52.196;20.952;2022-09-09T09:30:39;32.42;;;22.25;;
34317;SDS011;20582;52.196;20.952;2022-09-09T09:35:44;33.85;;;21.63;;
34317;SDS011;20582;52.196;20.952;2022-09-09T09:40:49;41.10;;;23.33;;
34317;SDS011;20582;52.196;20.952;2022-09-09T09:43:20;38.50;;;24.65;;
34317;SDS011;20582;52.196;20.952;2022-09-09T09:45:47;36.42;;;23.45;;
34317;SDS011;20582;52.196;20.952;2022-09-09T09:48:14;37.75;;;23.73;;
34317;SDS011;20582;52.196;20.952;2022-09-09T09:50:46;36.45;;;23.13;;
34317;SDS011;20582;52.196;20.952;2022-09-09T09:53:27;37.70;;;23.52;;
34317;SDS011;20582;52.196;20.952;2022-09-09T09:56:03;37.40;;;22.92;;
34317;SDS011;20582;52.196;20.952;2022-09-09T09:58:56;42.85;;;24.33;;
34317;SDS011;20582;52.196;20.952;2022-09-09T10:01:22;34.53;;;23.55;;
34317;SDS011;20582;52.196;20.952;2022-09-09T10:03:59;35.83;;;23.92;;
34317;SDS011;20582;52.196;20.952;2022-09-09T10:06:30;35.40;;;22.83;;
34317;SDS011;20582;52.196;20.952;2022-09-09T10:09:21;35.58;;;23.75;;
34317;SDS011;20582;52.196;20.952;2022-09-09T10:12:05;37.22;;;22.77;;
34317;SDS011;20582;52.196;20.952;2022-09-09T10:19:40;41.38;;;24.58;;
34317;SDS011;20582;52.196;20.952;2022-09-09T10:22:19;43.60;;;25.55;;
34317;SDS011;20582;52.196;20.952;2022-09-09T10:25:14;42.78;;;25.88;;
34317;SDS011;20582;52.196;20.952;2022-09-09T10:33:10;40.05;;;24.67;;
34317;SDS011;20582;52.196;20.952;2022-09-09T10:35:53;46.57;;;26.70;;
34317;SDS011;20582;52.196;20.952;2022-09-09T10:45:57;41.35;;;26.05;;
34317;SDS011;20582;52.196;20.952;2022-09-09T10:48:30;47.75;;;27.40;;
34317;SDS011;20582;52.196;20.952;2022-09-09T10:56:28;46.85;;;28.13;;
34317;SDS011;20582;52.196;20.952;2022-09-09T11:04:29;53.97;;;29.13;;
34317;SDS011;20582;52.196;20.952;2022-09-09T11:06:57;44.33;;;26.05;;
34317;SDS011;20582;52.196;20.952;2022-09-09T11:09:26;43.70;;;27.15;;
34317;SDS011;20582;52.196;20.952;2022-09-09T11:11:55;68.50;;;31.00;;
34317;SDS011;20582;52.196;20.952;2022-09-09T11:14:39;61.65;;;28.85;;
34317;SDS011;20582;52.196;20.952;2022-09-09T11:17:12;76.47;;;31.63;;
34317;SDS011;20582;52.196;20.952;2022-09-09T11:19:40;62.92;;;28.92;;
34317;SDS011;20582;52.196;20.952;2022-09-09T11:22:16;49.95;;;28.02;;
34317;SDS011;20582;52.196;20.952;2022-09-09T11:24:52;51.83;;;29.15;;
34317;SDS011;20582;52.196;20.952;2022-09-09T11:27:36;47.03;;;28.50;;
34317;SDS011;20582;52.196;20.952;2022-09-09T11:38:18;52.67;;;31.10;;
34317;SDS011;20582;52.196;20.952;2022-09-09T11:40:45;54.03;;;30.98;;
34317;SDS011;20582;52.196;20.952;2022-09-09T11:43:15;80.28;;;33.60;;
34317;SDS011;20582;52.196;20.952;2022-09-09T11:45:51;58.53;;;29.70;;
34317;SDS011;20582;52.196;20.952;2022-09-09T11:48:23;58.45;;;31.85;;
34317;SDS011;20582;52.196;20.952;2022-09-09T11:51:00;55.15;;;30.20;;
34317;SDS011;20582;52.196;20.952;2022-09-09T11:53:27;68.70;;;31.13;;
34317;SDS011;20582;52.196;20.952;2022-09-09T11:56:04;52.85;;;29.50;;
34317;SDS011;20582;52.196;20.952;2022-09-09T11:58:33;50.50;;;28.88;;
34317;SDS011;20582;52.196;20.952;2022-09-09T12:01:25;54.28;;;29.80;;
34317;SDS011;20582;52.196;20.952;2022-09-09T12:04:20;52.83;;;29.40;;
34317;SDS011;20582;52.196;20.952;2022-09-09T12:09:43;51.10;;;30.42;;
34317;SDS011;20582;52.196;20.952;2022-09-09T12:17:25;52.30;;;30.70;;
34317;SDS011;20582;52.196;20.952;2022-09-09T12:20:08;51.55;;;30.25;;
34317;SDS011;20582;52.196;20.952;2022-09-09T12:25:23;55.47;;;30.48;;
34317;SDS011;20582;52.196;20.952;2022-09-09T12:33:20;60.22;;;32.42;;
34317;SDS011;20582;52.196;20.952;2022-09-09T12:35:54;60.58;;;32.30;;
34317;SDS011;20582;52.196;20.952;2022-09-09T12:38:27;62.00;;;32.75;;
34317;SDS011;20582;52.196;20.952;2022-09-09T12:40:56;57.38;;;31.95;;
34317;SDS011;20582;52.196;20.952;2022-09-09T12:43:23;61.33;;;32.33;;
34317;SDS011;20582;52.196;20.952;2022-09-09T12:45:49;59.10;;;33.22;;
34317;SDS011;20582;52.196;20.952;2022-09-09T12:48:21;67.25;;;33.55;;
34317;SDS011;20582;52.196;20.952;2022-09-09T12:50:50;56.60;;;32.13;;
34317;SDS011;20582;52.196;20.952;2022-09-09T12:53:36;65.20;;;33.13;;
34317;SDS011;20582;52.196;20.952;2022-09-09T12:56:05;64.38;;;32.78;;
34317;SDS011;20582;52.196;20.952;2022-09-09T12:58:36;61.77;;;33.80;;
34317;SDS011;20582;52.196;20.952;2022-09-09T13:01:03;68.28;;;33.15;;
34317;SDS011;20582;52.196;20.952;2022-09-09T13:03:30;73.68;;;35.55;;
34317;SDS011;20582;52.196;20.952;2022-09-09T13:06:10;109.03;;;38.83;;
34317;SDS011;20582;52.196;20.952;2022-09-09T13:08:36;58.30;;;31.92;;
34317;SDS011;20582;52.196;20.952;2022-09-09T13:11:04;60.47;;;31.98;;
34317;SDS011;20582;52.196;20.952;2022-09-09T13:13:36;62.75;;;33.30;;
34317;SDS011;20582;52.196;20.952;2022-09-09T13:16:03;63.53;;;33.75;;
34317;SDS011;20582;52.196;20.952;2022-09-09T13:18:33;57.65;;;33.40;;
34317;SDS011;20582;52.196;20.952;2022-09-09T13:21:00;73.88;;;34.72;;
34317;SDS011;20582;52.196;20.952;2022-09-09T13:23:27;86.03;;;37.40;;
34317;SDS011;20582;52.196;20.952;2022-09-09T13:25:55;71.82;;;35.17;;
34317;SDS011;20582;52.196;20.952;2022-09-09T13:28:28;70.05;;;34.35;;
34317;SDS011;20582;52.196;20.952;2022-09-09T13:31:19;57.95;;;33.20;;
34317;SDS011;20582;52.196;20.952;2022-09-09T13:36:11;58.92;;;32.08;;
34317;SDS011;20582;52.196;20.952;2022-09-09T13:38:54;71.90;;;33.15;;
34317;SDS011;20582;52.196;20.952;2022-09-09T13:41:21;47.88;;;26.73;;
34317;SDS011;20582;52.196;20.952;2022-09-09T13:43:48;55.88;;;32.50;;
34317;SDS011;20582;52.196;20.952;2022-09-09T13:46:25;59.20;;;32.58;;
34317;SDS011;20582;52.196;20.952;2022-09-09T13:48:58;59.40;;;30.60;;
34317;SDS011;20582;52.196;20.952;2022-09-09T13:51:38;65.63;;;31.60;;
34317;SDS011;20582;52.196;20.952;2022-09-09T13:54:05;61.80;;;32.17;;
34317;SDS011;20582;52.196;20.952;2022-09-09T13:56:32;73.85;;;34.20;;
34317;SDS011;20582;52.196;20.952;2022-09-09T13:58:58;104.60;;;37.60;;
34317;SDS011;20582;52.196;20.952;2022-09-09T14:01:24;92.07;;;36.50;;
34317;SDS011;20582;52.196;20.952;2022-09-09T14:03:51;98.55;;;37.42;;
34317;SDS011;20582;52.196;20.952;2022-09-09T14:06:17;69.70;;;34.42;;
34317;SDS011;20582;52.196;20.952;2022-09-09T14:08:44;79.15;;;33.58;;
34317;SDS011;20582;52.196;20.952;2022-09-09T14:13:53;66.07;;;32.67;;
34317;SDS011;20582;52.196;20.952;2022-09-09T14:16:21;59.72;;;31.60;;
34317;SDS011;20582;52.196;20.952;2022-09-09T14:21:21;61.85;;;31.25;;
34317;SDS011;20582;52.196;20.952;2022-09-09T14:23:57;56.33;;;30.60;;
34317;SDS011;20582;52.196;20.952;2022-09-09T14:26:24;57.55;;;31.85;;
34317;SDS011;20582;52.196;20.952;2022-09-09T14:28:50;61.20;;;31.27;;
34317;SDS011;20582;52.196;20.952;2022-09-09T14:31:17;60.58;;;31.33;;
34317;SDS011;20582;52.196;20.952;2022-09-09T14:33:43;63.53;;;31.23;;
34317;SDS011;20582;52.196;20.952;2022-09-09T14:36:09;65.18;;;32.92;;
34317;SDS011;20582;52.196;20.952;2022-09-09T14:38:36;61.05;;;29.40;;
34317;SDS011;20582;52.196;20.952;2022-09-09T14:41:06;64.13;;;31.05;;
34317;SDS011;20582;52.196;20.952;2022-09-09T14:43:32;55.15;;;28.27;;
34317;SDS011;20582;52.196;20.952;2022-09-09T14:46:08;61.90;;;28.52;;
34317;SDS011;20582;52.196;20.952;2022-09-09T14:48:34;56.65;;;29.27;;
34317;SDS011;20582;52.196;20.952;2022-09-09T14:51:09;57.50;;;30.25;;
34317;SDS011;20582;52.196;20.952;2022-09-09T14:53:35;57.22;;;29.92;;
34317;SDS011;20582;52.196;20.952;2022-09-09T14:56:08;57.35;;;30.15;;
34317;SDS011;20582;52.196;20.952;2022-09-09T14:58:35;63.57;;;30.90;;
34317;SDS011;20582;52.196;20.952;2022-09-09T15:03:35;61.85;;;29.98;;
34317;SDS011;20582;52.196;20.952;2022-09-09T15:06:13;60.95;;;31.92;;
34317;SDS011;20582;52.196;20.952;2022-09-09T15:08:49;60.70;;;30.23;;
34317;SDS011;20582;52.196;20.952;2022-09-09T15:11:23;56.92;;;29.60;;
34317;SDS011;20582;52.196;20.952;2022-09-09T15:14:02;58.15;;;29.52;;
34317;SDS011;20582;52.196;20.952;2022-09-09T15:16:28;60.95;;;29.77;;
34317;SDS011;20582;52.196;20.952;2022-09-09T15:19:02;59.72;;;30.48;;
34317;SDS011;20582;52.196;20.952;2022-09-09T15:21:29;56.20;;;30.45;;
34317;SDS011;20582;52.196;20.952;2022-09-09T15:23:57;49.20;;;28.50;;
34317;SDS011;20582;52.196;20.952;2022-09-09T15:26:24;50.70;;;28.30;;
34317;SDS011;20582;52.196;20.952;2022-09-09T15:28:50;53.20;;;28.85;;
34317;SDS011;20582;52.196;20.952;2022-09-09T15:31:18;51.30;;;28.52;;
34317;SDS011;20582;52.196;20.952;2022-09-09T15:33:48;54.83;;;29.10;;
34317;SDS011;20582;52.196;20.952;2022-09-09T15:38:40;53.35;;;29.75;;
34317;SDS011;20582;52.196;20.952;2022-09-09T15:41:06;53.08;;;29.55;;
34317;SDS011;20582;52.196;20.952;2022-09-09T15:43:32;60.05;;;30.85;;
34317;SDS011;20582;52.196;20.952;2022-09-09T15:46:06;50.70;;;30.02;;
34317;SDS011;20582;52.196;20.952;2022-09-09T15:48:51;50.60;;;27.88;;
34317;SDS011;20582;52.196;20.952;2022-09-09T15:51:17;49.38;;;28.63;;
34317;SDS011;20582;52.196;20.952;2022-09-09T15:53:44;51.50;;;28.77;;
34317;SDS011;20582;52.196;20.952;2022-09-09T15:56:10;52.67;;;29.10;;
34317;SDS011;20582;52.196;20.952;2022-09-09T15:58:40;51.80;;;29.15;;
34317;SDS011;20582;52.196;20.952;2022-09-09T16:01:09;48.70;;;27.83;;
34317;SDS011;20582;52.196;20.952;2022-09-09T16:03:36;50.65;;;29.17;;
34317;SDS011;20582;52.196;20.952;2022-09-09T16:06:03;54.38;;;30.98;;
34317;SDS011;20582;52.196;20.952;2022-09-09T16:08:37;53.72;;;31.05;;
34317;SDS011;20582;52.196;20.952;2022-09-09T16:11:04;50.47;;;31.30;;
34317;SDS011;20582;52.196;20.952;2022-09-09T16:13:32;59.03;;;33.97;;
34317;SDS011;20582;52.196;20.952;2022-09-09T16:15:58;55.47;;;32.28;;
34317;SDS011;20582;52.196;20.952;2022-09-09T16:18:24;57.88;;;32.58;;
34317;SDS011;20582;52.196;20.952;2022-09-09T16:20:54;58.78;;;32.83;;
34317;SDS011;20582;52.196;20.952;2022-09-09T16:23:20;52.92;;;32.08;;
34317;SDS011;20582;52.196;20.952;2022-09-09T16:25:56;50.65;;;30.17;;
34317;SDS011;20582;52.196;20.952;2022-09-09T16:28:32;55.20;;;31.08;;
34317;SDS011;20582;52.196;20.952;2022-09-09T16:30:58;53.58;;;30.35;;
34317;SDS011;20582;52.196;20.952;2022-09-09T16:33:29;56.35;;;31.77;;
34317;SDS011;20582;52.196;20.952;2022-09-09T16:36:08;60.13;;;31.55;;
34317;SDS011;20582;52.196;20.952;2022-09-09T16:41:25;51.42;;;28.13;;
34317;SDS011;20582;52.196;20.952;2022-09-09T16:43:56;49.20;;;29.35;;
34317;SDS011;20582;52.196;20.952;2022-09-09T16:46:28;49.50;;;30.08;;
34317;SDS011;20582;52.196;20.952;2022-09-09T16:48:57;53.40;;;31.02;;
34317;SDS011;20582;52.196;20.952;2022-09-09T16:51:24;56.20;;;31.50;;
34317;SDS011;20582;52.196;20.952;2022-09-09T16:53:51;55.75;;;32.10;;
34317;SDS011;20582;52.196;20.952;2022-09-09T16:56:18;57.30;;;33.15;;
34317;SDS011;20582;52.196;20.952;2022-09-09T16:58:49;53.55;;;32.20;;
34317;SDS011;20582;52.196;20.952;2022-09-09T17:01:23;56.28;;;31.60;;
34317;SDS011;20582;52.196;20.952;2022-09-09T17:03:55;57.13;;;32.15;;
34317;SDS011;20582;52.196;20.952;2022-09-09T17:06:22;52.53;;;31.92;;